Time;durP1;ratioP1;P1;durP2;ratioP2;P2;SDS_P1;SDS_P2;PMS_P1;PMS_P2;Temp;Humidity;BMP_temperature;BMP_pressure;BME280_temperature;BME280_humidity;BME280_pressure;Samples;Min_cycle;Max_cycle;Signal;HPM_P1;HPM_P2
2024/02/25 00:00:14;;;;;;;;;3.33;1.33;;;;;;;;5093701;27;46118;-51
2024/02/25 00:02:41;;;;;;;;;1.00;1.00;;;;;;;;5097465;27;45342;-51
2024/02/25 00:05:06;;;;;;;;;3.00;2.00;;;;;;;;5096082;27;45642;-51
2024/02/25 00:07:31;;;;;;;;;2.00;1.00;;;;;;;;5105305;27;45261;-51
2024/02/25 00:09:56;;;;;;;;;2.00;1.00;;;;;;;;5104707;27;45417;-52
2024/02/25 00:12:23;;;;;;;;;2.67;1.00;;;;;;;;5104653;27;45223;-51
2024/02/25 00:14:48;;;;;;;;;1.00;1.00;;;;;;;;5093875;27;45389;-52
2024/02/25 00:17:13;;;;;;;;;2.00;2.00;;;;;;;;5104549;27;45182;-51
2024/02/25 00:19:38;;;;;;;;;3.00;1.33;;;;;;;;5111846;27;46444;-50
2024/02/25 00:22:04;;;;;;;;;3.33;3.33;;;;;;;;5100784;27;45361;-52
2024/02/25 00:24:29;;;;;;;;;2.00;2.00;;;;;;;;5112456;27;45471;-53
2024/02/25 00:26:54;;;;;;;;;2.67;1.33;;;;;;;;5101128;27;45167;-50
2024/02/25 00:29:19;;;;;;;;;1.00;1.00;;;;;;;;5092251;27;46253;-49
2024/02/25 00:31:44;;;;;;;;;1.00;1.00;;;;;;;;5092639;27;45265;-49
2024/02/25 00:34:10;;;;;;;;;2.00;2.00;;;;;;;;5092333;27;45230;-52
2024/02/25 00:36:35;;;;;;;;;2.00;2.00;;;;;;;;5092336;27;45338;-51
2024/02/25 00:39:02;;;;;;;;;4.00;2.00;;;;;;;;5095771;27;45373;-51
2024/02/25 00:41:27;;;;;;;;;3.00;3.00;;;;;;;;5095474;27;45375;-49
2024/02/25 00:43:53;;;;;;;;;2.33;2.00;;;;;;;;5096271;27;45485;-51
2024/02/25 00:46:18;;;;;;;;;2.33;2.00;;;;;;;;5093774;27;45432;-50
2024/02/25 00:48:43;;;;;;;;;3.00;2.00;;;;;;;;5097256;27;45496;-49
2024/02/25 00:51:08;;;;;;;;;4.00;3.00;;;;;;;;5087496;27;45551;-52
2024/02/25 00:53:34;;;;;;;;;4.33;3.00;;;;;;;;5082654;27;46382;-52
2024/02/25 00:55:59;;;;;;;;;4.00;3.00;;;;;;;;5080616;27;45432;-59
2024/02/25 00:58:24;;;;;;;;;3.67;3.00;;;;;;;;5077137;27;45449;-50
2024/02/25 01:00:49;;;;;;;;;5.00;3.00;;;;;;;;5071922;27;45463;-53
2024/02/25 01:03:14;;;;;;;;;2.33;1.67;;;;;;;;5070078;28;45472;-52
2024/02/25 01:05:39;;;;;;;;;2.00;2.00;;;;;;;;5080125;27;45497;-52
2024/02/25 01:08:05;;;;;;;;;2.00;2.00;;;;;;;;5079855;28;45519;-54
2024/02/25 01:10:30;;;;;;;;;2.00;2.00;;;;;;;;5077618;27;45500;-50
2024/02/25 01:12:55;;;;;;;;;2.00;2.00;;;;;;;;5080273;27;45572;-53
2024/02/25 01:15:21;;;;;;;;;1.67;1.67;;;;;;;;5079782;28;45494;-53
2024/02/25 01:17:46;;;;;;;;;2.67;2.00;;;;;;;;5080233;28;46309;-53
2024/02/25 01:20:11;;;;;;;;;4.00;3.00;;;;;;;;5079908;28;45678;-52
2024/02/25 01:22:36;;;;;;;;;4.00;2.67;;;;;;;;5081131;27;45478;-53
2024/02/25 01:25:02;;;;;;;;;2.33;2.33;;;;;;;;5071955;27;45437;-51
2024/02/25 01:27:27;;;;;;;;;2.00;2.00;;;;;;;;5080190;28;47997;-53
2024/02/25 01:29:52;;;;;;;;;1.00;1.00;;;;;;;;5079776;28;45409;-52
2024/02/25 01:32:18;;;;;;;;;3.33;2.00;;;;;;;;5081491;27;45409;-53
2024/02/25 01:34:43;;;;;;;;;2.00;2.00;;;;;;;;5081192;27;45254;-53
2024/02/25 01:37:09;;;;;;;;;2.00;2.00;;;;;;;;5079795;28;46199;-52
2024/02/25 01:39:34;;;;;;;;;1.00;1.00;;;;;;;;5095378;27;45271;-53
2024/02/25 01:41:59;;;;;;;;;4.00;3.00;;;;;;;;5080766;27;45314;-53
2024/02/25 01:44:25;;;;;;;;;2.33;1.00;;;;;;;;5086649;27;45330;-50
2024/02/25 01:46:50;;;;;;;;;3.00;3.00;;;;;;;;5086632;27;46240;-53
2024/02/25 01:49:15;;;;;;;;;2.00;2.00;;;;;;;;5085683;27;45425;-53
2024/02/25 01:51:42;;;;;;;;;3.00;3.00;;;;;;;;5080626;27;45350;-53
2024/02/25 01:54:07;;;;;;;;;1.00;1.00;;;;;;;;5080379;27;45520;-52
2024/02/25 01:56:35;;;;;;;;;3.33;2.00;;;;;;;;5079722;27;47290;-49
2024/02/25 01:59:01;;;;;;;;;2.00;2.00;;;;;;;;5086273;27;45378;-54
2024/02/25 02:01:26;;;;;;;;;2.67;2.00;;;;;;;;5080146;27;45322;-51
2024/02/25 02:03:52;;;;;;;;;2.00;2.00;;;;;;;;5083456;27;45472;-51
2024/02/25 02:06:17;;;;;;;;;1.00;1.00;;;;;;;;5085413;27;46899;-53
2024/02/25 02:08:42;;;;;;;;;2.00;2.00;;;;;;;;5088740;27;45275;-50
2024/02/25 02:11:17;;;;;;;;;1.33;1.00;;;;;;;;5080011;27;45596;-52
2024/02/25 02:13:42;;;;;;;;;2.00;1.00;;;;;;;;5077327;27;45318;-52
2024/02/25 02:16:14;;;;;;;;;2.00;2.00;;;;;;;;5086369;27;45345;-50
2024/02/25 02:18:42;;;;;;;;;2.00;2.00;;;;;;;;5079799;28;45369;-52
2024/02/25 02:21:14;;;;;;;;;2.00;2.00;;;;;;;;5078244;27;45561;-51
2024/02/25 02:23:40;;;;;;;;;1.00;1.00;;;;;;;;5086625;27;46197;-51
2024/02/25 02:26:05;;;;;;;;;2.00;0.67;;;;;;;;5087225;27;46254;-53
2024/02/25 02:28:30;;;;;;;;;2.00;2.00;;;;;;;;5085078;27;45487;-52
2024/02/25 02:30:55;;;;;;;;;2.00;2.00;;;;;;;;5080439;27;45522;-49
2024/02/25 02:33:20;;;;;;;;;2.00;2.00;;;;;;;;5086485;27;45564;-50
2024/02/25 02:35:45;;;;;;;;;3.00;2.00;;;;;;;;5083792;27;45450;-51
2024/02/25 02:38:11;;;;;;;;;2.00;2.00;;;;;;;;5079842;27;45762;-53
2024/02/25 02:40:37;;;;;;;;;1.00;1.00;;;;;;;;5079070;27;45811;-53
2024/02/25 02:43:02;;;;;;;;;2.33;2.00;;;;;;;;5089998;27;45321;-53
2024/02/25 02:45:27;;;;;;;;;1.00;1.00;;;;;;;;5088996;27;47083;-51
2024/02/25 02:47:53;;;;;;;;;6.00;1.00;;;;;;;;5090588;27;45463;-54
2024/02/25 02:50:18;;;;;;;;;3.00;3.00;;;;;;;;5080058;27;45215;-53
2024/02/25 02:52:43;;;;;;;;;2.67;2.00;;;;;;;;5095815;27;45324;-51
2024/02/25 02:55:09;;;;;;;;;3.00;3.00;;;;;;;;5091054;27;45524;-52
2024/02/25 02:57:34;;;;;;;;;3.00;2.00;;;;;;;;5079127;28;45258;-52
2024/02/25 02:59:59;;;;;;;;;4.00;3.00;;;;;;;;5086750;27;45508;-53
2024/02/25 03:02:25;;;;;;;;;2.67;2.00;;;;;;;;5076819;28;45345;-52
2024/02/25 03:04:51;;;;;;;;;0.67;0.67;;;;;;;;5078513;27;46240;-51
2024/02/25 03:07:16;;;;;;;;;3.33;2.00;;;;;;;;5077958;28;45396;-53
2024/02/25 03:09:41;;;;;;;;;2.00;2.00;;;;;;;;5078553;27;45257;-52
2024/02/25 03:12:06;;;;;;;;;2.00;2.00;;;;;;;;5077992;27;45271;-52
2024/02/25 03:14:31;;;;;;;;;1.67;1.67;;;;;;;;5079212;27;45429;-49
2024/02/25 03:16:56;;;;;;;;;3.00;3.00;;;;;;;;5080217;27;45281;-53
2024/02/25 03:19:22;;;;;;;;;1.00;1.00;;;;;;;;5078833;27;45216;-54
2024/02/25 03:21:47;;;;;;;;;3.00;3.00;;;;;;;;5079203;27;45319;-49
2024/02/25 03:24:12;;;;;;;;;3.67;3.00;;;;;;;;5079405;27;46539;-52
2024/02/25 03:26:38;;;;;;;;;2.67;2.67;;;;;;;;5079099;27;45909;-52
2024/02/25 03:29:05;;;;;;;;;4.00;2.33;;;;;;;;5078879;27;45645;-50
2024/02/25 03:31:31;;;;;;;;;7.00;5.00;;;;;;;;5078449;27;45431;-52
2024/02/25 03:33:56;;;;;;;;;1.00;0.00;;;;;;;;5080865;27;45334;-51
2024/02/25 03:36:21;;;;;;;;;4.00;2.67;;;;;;;;5078893;27;45774;-51
2024/02/25 03:38:46;;;;;;;;;8.00;3.00;;;;;;;;5079143;27;45286;-51
2024/02/25 03:41:15;;;;;;;;;3.00;3.00;;;;;;;;5082399;27;45376;-50
2024/02/25 03:43:40;;;;;;;;;3.00;3.00;;;;;;;;5080916;27;46514;-52
2024/02/25 03:46:06;;;;;;;;;3.33;3.33;;;;;;;;5087804;27;45566;-51
2024/02/25 03:48:31;;;;;;;;;3.00;3.00;;;;;;;;5078786;28;45453;-51
2024/02/25 03:50:56;;;;;;;;;5.33;4.00;;;;;;;;5078970;27;45382;-52
2024/02/25 03:53:21;;;;;;;;;4.00;3.00;;;;;;;;5084184;27;45588;-52
2024/02/25 03:55:46;;;;;;;;;5.00;3.00;;;;;;;;5078799;27;45240;-52
2024/02/25 03:58:11;;;;;;;;;4.00;2.00;;;;;;;;5078986;27;45279;-53
2024/02/25 04:00:37;;;;;;;;;3.00;2.00;;;;;;;;5085809;27;45263;-50
2024/02/25 04:03:02;;;;;;;;;3.00;2.67;;;;;;;;5076009;27;46113;-52
2024/02/25 04:05:27;;;;;;;;;3.00;3.00;;;;;;;;5091358;27;45393;-53
2024/02/25 04:07:53;;;;;;;;;9.00;5.00;;;;;;;;5077641;28;45886;-52
2024/02/25 04:10:18;;;;;;;;;3.00;2.00;;;;;;;;5084858;27;45718;-52
2024/02/25 04:12:43;;;;;;;;;8.67;3.67;;;;;;;;5081786;27;46230;-51
2024/02/25 04:15:09;;;;;;;;;1.67;1.67;;;;;;;;5084592;27;45306;-50
2024/02/25 04:17:34;;;;;;;;;3.67;3.00;;;;;;;;5078815;27;45503;-50
2024/02/25 04:20:00;;;;;;;;;3.00;3.00;;;;;;;;5085366;27;45711;-49
2024/02/25 04:22:25;;;;;;;;;3.00;2.67;;;;;;;;5078081;27;45512;-52
2024/02/25 04:24:50;;;;;;;;;2.00;1.00;;;;;;;;5078468;27;45508;-52
2024/02/25 04:27:16;;;;;;;;;5.00;3.67;;;;;;;;5081426;27;45367;-53
2024/02/25 04:29:44;;;;;;;;;4.33;2.00;;;;;;;;5082512;27;45892;-52
2024/02/25 04:32:09;;;;;;;;;4.67;4.67;;;;;;;;5080711;27;46050;-53
2024/02/25 04:34:35;;;;;;;;;1.33;1.33;;;;;;;;5082546;27;45364;-50
2024/02/25 04:37:00;;;;;;;;;7.00;4.00;;;;;;;;5082175;27;45381;-52
2024/02/25 04:39:26;;;;;;;;;3.67;3.00;;;;;;;;5095718;27;45319;-51
2024/02/25 04:41:51;;;;;;;;;0.67;0.00;;;;;;;;5088493;27;46215;-52
2024/02/25 04:44:16;;;;;;;;;3.00;3.00;;;;;;;;5087123;27;45378;-49
2024/02/25 04:46:41;;;;;;;;;4.33;4.00;;;;;;;;5086827;27;45414;-52
2024/02/25 04:49:08;;;;;;;;;4.67;3.33;;;;;;;;5081098;27;45520;-53
2024/02/25 04:51:33;;;;;;;;;3.00;3.00;;;;;;;;5087609;27;45451;-50
2024/02/25 04:53:58;;;;;;;;;3.00;3.00;;;;;;;;5096587;27;45333;-52
2024/02/25 04:56:27;;;;;;;;;4.33;3.67;;;;;;;;5087984;27;45376;-52
2024/02/25 04:58:53;;;;;;;;;5.00;5.00;;;;;;;;5084569;27;45405;-53
2024/02/25 05:01:18;;;;;;;;;6.33;4.00;;;;;;;;5079959;28;45585;-53
2024/02/25 05:03:43;;;;;;;;;7.00;3.00;;;;;;;;5073171;28;45298;-52
2024/02/25 05:06:08;;;;;;;;;4.00;4.00;;;;;;;;5080887;27;45381;-53
2024/02/25 05:08:33;;;;;;;;;5.00;3.00;;;;;;;;5096215;27;45552;-51
2024/02/25 05:10:59;;;;;;;;;2.33;2.33;;;;;;;;5093014;27;46295;-50
2024/02/25 05:13:24;;;;;;;;;4.67;2.00;;;;;;;;5084721;27;45369;-51
2024/02/25 05:15:49;;;;;;;;;3.33;3.33;;;;;;;;5093197;27;45276;-52
2024/02/25 05:18:14;;;;;;;;;2.67;2.00;;;;;;;;5097955;27;45273;-52
2024/02/25 05:20:39;;;;;;;;;3.67;2.33;;;;;;;;5088077;27;45373;-52
2024/02/25 05:23:05;;;;;;;;;8.33;3.67;;;;;;;;5083868;27;45603;-53
2024/02/25 05:25:30;;;;;;;;;8.00;4.00;;;;;;;;5087855;27;45275;-52
2024/02/25 05:27:55;;;;;;;;;4.33;3.00;;;;;;;;5079662;27;45388;-51
2024/02/25 05:30:21;;;;;;;;;4.67;4.00;;;;;;;;5087554;27;46328;-51
2024/02/25 05:32:46;;;;;;;;;7.67;4.67;;;;;;;;5081464;27;45450;-51
2024/02/25 05:35:11;;;;;;;;;10.00;4.67;;;;;;;;5088071;27;45238;-52
2024/02/25 05:37:36;;;;;;;;;6.00;3.67;;;;;;;;5078236;27;45358;-50
2024/02/25 05:40:02;;;;;;;;;8.67;3.33;;;;;;;;5093778;27;45380;-54
2024/02/25 05:42:27;;;;;;;;;5.00;3.00;;;;;;;;5075178;27;45606;-51
2024/02/25 05:44:53;;;;;;;;;5.00;4.00;;;;;;;;5088418;27;45328;-51
2024/02/25 05:47:19;;;;;;;;;4.00;4.00;;;;;;;;5088303;27;45360;-51
2024/02/25 05:49:44;;;;;;;;;3.00;3.00;;;;;;;;5093890;27;45705;-52
2024/02/25 05:52:09;;;;;;;;;4.00;4.00;;;;;;;;5083387;27;45519;-50
2024/02/25 05:54:35;;;;;;;;;5.67;4.67;;;;;;;;5081732;27;45313;-51
2024/02/25 05:57:00;;;;;;;;;5.00;3.00;;;;;;;;5085707;27;45604;-53
2024/02/25 05:59:25;;;;;;;;;3.67;2.67;;;;;;;;5084042;27;46789;-52
2024/02/25 06:01:51;;;;;;;;;4.67;4.00;;;;;;;;5080602;27;45627;-52
2024/02/25 06:04:22;;;;;;;;;5.00;4.00;;;;;;;;5084403;27;45743;-53
2024/02/25 06:06:50;;;;;;;;;6.00;4.33;;;;;;;;5074841;27;45338;-52
2024/02/25 06:09:16;;;;;;;;;2.67;2.33;;;;;;;;5091139;27;46379;-51
2024/02/25 06:11:41;;;;;;;;;2.33;2.00;;;;;;;;5089466;27;45613;-50
2024/02/25 06:14:06;;;;;;;;;8.00;5.00;;;;;;;;5088960;27;45442;-52
2024/02/25 06:16:32;;;;;;;;;5.67;5.00;;;;;;;;5083571;27;45613;-53
2024/02/25 06:19:01;;;;;;;;;7.00;5.00;;;;;;;;5076455;27;46296;-53
2024/02/25 06:21:26;;;;;;;;;5.67;5.00;;;;;;;;5088143;27;45421;-50
2024/02/25 06:23:51;;;;;;;;;5.33;4.00;;;;;;;;5087756;27;45565;-53
2024/02/25 06:26:17;;;;;;;;;3.33;3.33;;;;;;;;5084060;27;46498;-52
2024/02/25 06:28:42;;;;;;;;;5.67;3.00;;;;;;;;5084990;27;46141;-53
2024/02/25 06:31:08;;;;;;;;;4.00;3.00;;;;;;;;5086175;27;45608;-50
2024/02/25 06:33:33;;;;;;;;;5.67;3.67;;;;;;;;5082527;27;45480;-50
2024/02/25 06:35:59;;;;;;;;;5.00;4.00;;;;;;;;5078974;27;45497;-50
2024/02/25 06:38:24;;;;;;;;;3.33;2.00;;;;;;;;5089476;27;45676;-51
2024/02/25 06:40:49;;;;;;;;;7.33;3.67;;;;;;;;5083273;27;45530;-55
2024/02/25 06:43:14;;;;;;;;;6.00;4.00;;;;;;;;5088988;27;47859;-51
2024/02/25 06:45:39;;;;;;;;;7.33;3.67;;;;;;;;5080790;27;45344;-52
2024/02/25 06:48:05;;;;;;;;;4.00;2.33;;;;;;;;5093434;27;46263;-52
2024/02/25 06:50:30;;;;;;;;;7.33;4.00;;;;;;;;5093405;27;45365;-52
2024/02/25 06:52:55;;;;;;;;;5.67;2.33;;;;;;;;5079589;28;45222;-52
2024/02/25 06:55:20;;;;;;;;;11.00;4.67;;;;;;;;5081831;27;45444;-51
2024/02/25 06:57:46;;;;;;;;;3.67;1.00;;;;;;;;5079607;28;46324;-51
2024/02/25 07:00:11;;;;;;;;;4.33;4.00;;;;;;;;5090003;27;45308;-50
2024/02/25 07:02:36;;;;;;;;;7.67;3.00;;;;;;;;5083276;27;45337;-55
2024/02/25 07:05:02;;;;;;;;;3.00;1.00;;;;;;;;5089166;27;46654;-52
2024/02/25 07:07:27;;;;;;;;;3.00;3.00;;;;;;;;5084037;27;45472;-52
2024/02/25 07:09:56;;;;;;;;;1.00;1.00;;;;;;;;5078336;27;45318;-49
2024/02/25 07:12:21;;;;;;;;;5.00;5.00;;;;;;;;5083848;27;45492;-49
2024/02/25 07:14:46;;;;;;;;;2.67;2.67;;;;;;;;5080217;27;45228;-49
2024/02/25 07:17:11;;;;;;;;;5.67;5.00;;;;;;;;5089441;27;46468;-53
2024/02/25 07:19:42;;;;;;;;;3.00;3.00;;;;;;;;5092961;27;45377;-52
2024/02/25 07:22:07;;;;;;;;;4.33;3.00;;;;;;;;5078443;27;45428;-51
2024/02/25 07:24:32;;;;;;;;;4.33;3.00;;;;;;;;5091572;27;45620;-52
2024/02/25 07:26:57;;;;;;;;;4.33;2.33;;;;;;;;5078566;27;45523;-53
2024/02/25 07:29:22;;;;;;;;;3.67;3.00;;;;;;;;5078148;27;45559;-52
2024/02/25 07:31:50;;;;;;;;;4.00;4.00;;;;;;;;5080290;27;45372;-51
2024/02/25 07:34:15;;;;;;;;;4.33;3.00;;;;;;;;5079702;27;45770;-51
2024/02/25 07:36:40;;;;;;;;;4.33;3.00;;;;;;;;5079277;27;45858;-51
2024/02/25 07:39:05;;;;;;;;;4.00;4.00;;;;;;;;5088351;27;45201;-52
2024/02/25 07:41:31;;;;;;;;;3.33;2.67;;;;;;;;5075793;27;45404;-52
2024/02/25 07:43:56;;;;;;;;;5.00;3.67;;;;;;;;5087113;27;45306;-51
2024/02/25 07:46:21;;;;;;;;;3.67;3.67;;;;;;;;5085331;27;45307;-52
2024/02/25 07:48:46;;;;;;;;;4.00;2.33;;;;;;;;5078300;28;45313;-52
2024/02/25 07:51:11;;;;;;;;;3.00;3.00;;;;;;;;5078083;27;45443;-51
2024/02/25 07:53:37;;;;;;;;;3.00;3.00;;;;;;;;5078174;27;45726;-50
2024/02/25 07:56:02;;;;;;;;;2.33;2.00;;;;;;;;5087076;27;45415;-50
2024/02/25 07:58:28;;;;;;;;;4.33;3.00;;;;;;;;5082533;27;45338;-50
2024/02/25 08:00:53;;;;;;;;;3.33;3.33;;;;;;;;5089224;27;45587;-52
2024/02/25 08:03:18;;;;;;;;;4.00;3.67;;;;;;;;5091960;27;45540;-51
2024/02/25 08:05:44;;;;;;;;;4.00;4.00;;;;;;;;5085843;27;46492;-51
2024/02/25 08:08:09;;;;;;;;;4.33;3.00;;;;;;;;5082318;27;45436;-52
2024/02/25 08:10:36;;;;;;;;;5.00;3.00;;;;;;;;5081363;27;45708;-50
2024/02/25 08:13:02;;;;;;;;;3.00;3.00;;;;;;;;5085241;27;46280;-52
2024/02/25 08:15:27;;;;;;;;;4.00;2.00;;;;;;;;5081090;27;46051;-52
2024/02/25 08:17:52;;;;;;;;;3.33;2.33;;;;;;;;5088027;27;45317;-52
2024/02/25 08:20:17;;;;;;;;;3.00;2.67;;;;;;;;5091097;27;45275;-52
2024/02/25 08:22:42;;;;;;;;;2.00;2.00;;;;;;;;5087611;27;45469;-52
2024/02/25 08:25:09;;;;;;;;;3.00;3.00;;;;;;;;5099641;27;47106;-50
2024/02/25 08:27:34;;;;;;;;;3.00;3.00;;;;;;;;5083589;27;45365;-53
2024/02/25 08:29:59;;;;;;;;;2.00;2.00;;;;;;;;5081801;27;45427;-49
2024/02/25 08:32:24;;;;;;;;;3.00;2.00;;;;;;;;5081074;27;45289;-51
2024/02/25 08:34:55;;;;;;;;;8.67;3.00;;;;;;;;5081853;27;46373;-51
2024/02/25 08:37:21;;;;;;;;;4.00;2.00;;;;;;;;5080121;27;45431;-51
2024/02/25 08:39:47;;;;;;;;;2.00;2.00;;;;;;;;5085139;27;45326;-50
2024/02/25 08:42:12;;;;;;;;;2.33;2.33;;;;;;;;5080371;27;45456;-53
2024/02/25 08:44:38;;;;;;;;;4.00;2.67;;;;;;;;5087528;27;47090;-53
2024/02/25 08:47:03;;;;;;;;;5.67;3.33;;;;;;;;5094865;27;45610;-52
2024/02/25 08:49:28;;;;;;;;;3.00;3.00;;;;;;;;5085865;27;45333;-51
2024/02/25 08:51:54;;;;;;;;;3.00;3.00;;;;;;;;5086428;27;45652;-51
2024/02/25 08:54:19;;;;;;;;;5.67;3.67;;;;;;;;5087663;27;46730;-52
2024/02/25 08:56:44;;;;;;;;;2.00;2.00;;;;;;;;5085121;27;45414;-52
2024/02/25 08:59:09;;;;;;;;;4.67;2.33;;;;;;;;5082894;27;45264;-53
2024/02/25 09:01:34;;;;;;;;;3.00;3.00;;;;;;;;5091244;27;45410;-52
2024/02/25 09:03:59;;;;;;;;;5.00;3.00;;;;;;;;5084221;27;46417;-53
2024/02/25 09:06:25;;;;;;;;;6.67;1.67;;;;;;;;5079258;27;45755;-53
2024/02/25 09:08:50;;;;;;;;;4.00;2.67;;;;;;;;5081059;27;45645;-52
2024/02/25 09:11:16;;;;;;;;;3.00;2.00;;;;;;;;5080423;27;45389;-51
2024/02/25 09:13:42;;;;;;;;;4.00;2.00;;;;;;;;5080547;27;46870;-51
2024/02/25 09:16:07;;;;;;;;;2.00;2.00;;;;;;;;5080500;27;45340;-50
2024/02/25 09:18:32;;;;;;;;;4.67;3.00;;;;;;;;5081027;27;45254;-50
2024/02/25 09:20:59;;;;;;;;;2.67;2.67;;;;;;;;5081330;27;45257;-53
2024/02/25 09:23:24;;;;;;;;;2.00;2.00;;;;;;;;5079618;27;47053;-51
2024/02/25 09:25:50;;;;;;;;;2.00;1.00;;;;;;;;5080321;27;45386;-51
2024/02/25 09:28:18;;;;;;;;;1.00;1.00;;;;;;;;5079433;27;45692;-49
2024/02/25 09:30:44;;;;;;;;;2.00;2.00;;;;;;;;5078430;27;45717;-52
2024/02/25 09:33:09;;;;;;;;;4.00;1.00;;;;;;;;5079660;27;45997;-53
2024/02/25 09:35:35;;;;;;;;;2.00;2.00;;;;;;;;5079340;27;45284;-49
2024/02/25 09:38:00;;;;;;;;;2.67;2.00;;;;;;;;5078472;27;45545;-51
2024/02/25 09:40:25;;;;;;;;;3.00;3.00;;;;;;;;5083312;27;45442;-53
2024/02/25 09:42:52;;;;;;;;;1.67;1.67;;;;;;;;5079880;27;45513;-52
2024/02/25 09:45:21;;;;;;;;;1.67;1.00;;;;;;;;5076112;27;45616;-56
2024/02/25 09:47:48;;;;;;;;;3.00;2.00;;;;;;;;5079141;27;45370;-52
2024/02/25 09:50:14;;;;;;;;;1.00;1.00;;;;;;;;5078601;28;45464;-50
2024/02/25 09:52:40;;;;;;;;;3.00;1.00;;;;;;;;5080272;27;46065;-53
2024/02/25 09:55:05;;;;;;;;;3.00;1.00;;;;;;;;5080107;27;45268;-52
2024/02/25 09:57:30;;;;;;;;;2.00;2.00;;;;;;;;5080460;27;45655;-51
2024/02/25 09:59:55;;;;;;;;;1.00;1.00;;;;;;;;5079445;27;45396;-50
2024/02/25 10:02:21;;;;;;;;;3.00;3.00;;;;;;;;5079802;27;46111;-50
2024/02/25 10:04:46;;;;;;;;;3.00;3.00;;;;;;;;5076657;27;45580;-53
2024/02/25 10:07:14;;;;;;;;;4.00;2.00;;;;;;;;5078626;27;45259;-52
2024/02/25 10:09:42;;;;;;;;;5.00;3.67;;;;;;;;5081009;27;45428;-51
2024/02/25 10:12:07;;;;;;;;;5.00;2.00;;;;;;;;5078282;27;46378;-50
2024/02/25 10:14:32;;;;;;;;;1.33;1.33;;;;;;;;5081262;27;45341;-50
2024/02/25 10:17:04;;;;;;;;;2.33;2.33;;;;;;;;5081176;27;45335;-51
2024/02/25 10:19:30;;;;;;;;;1.00;1.00;;;;;;;;5077488;27;45377;-50
2024/02/25 10:22:05;;;;;;;;;1.67;1.67;;;;;;;;5079647;27;46907;-52
2024/02/25 10:24:30;;;;;;;;;2.67;1.00;;;;;;;;5080340;27;45500;-52
2024/02/25 10:27:12;;;;;;;;;1.67;1.67;;;;;;;;5082104;27;45484;-52
2024/02/25 10:29:51;;;;;;;;;6.33;5.33;;;;;;;;5081195;27;45771;-52
2024/02/25 10:32:23;;;;;;;;;2.33;2.33;;;;;;;;5079918;27;46143;-51
2024/02/25 10:34:50;;;;;;;;;3.00;2.00;;;;;;;;5076067;27;45418;-49
2024/02/25 10:37:16;;;;;;;;;5.00;3.00;;;;;;;;5079435;27;45527;-51
2024/02/25 10:39:42;;;;;;;;;3.00;3.00;;;;;;;;5078071;27;45547;-52
2024/02/25 10:42:08;;;;;;;;;3.00;2.00;;;;;;;;5079588;27;45467;-53
2024/02/25 10:44:33;;;;;;;;;2.67;2.00;;;;;;;;5080262;27;45384;-51
2024/02/25 10:46:59;;;;;;;;;2.00;2.00;;;;;;;;5075218;27;45355;-49
2024/02/25 10:49:25;;;;;;;;;2.67;2.67;;;;;;;;5079130;27;45510;-52
2024/02/25 10:51:51;;;;;;;;;2.67;2.67;;;;;;;;5080936;27;45407;-53
2024/02/25 10:54:17;;;;;;;;;2.67;2.67;;;;;;;;5079942;27;45357;-52
2024/02/25 10:56:42;;;;;;;;;2.00;2.00;;;;;;;;5078417;27;45824;-53
2024/02/25 10:59:12;;;;;;;;;5.00;3.00;;;;;;;;5077429;27;45502;-50
2024/02/25 11:01:38;;;;;;;;;3.00;3.00;;;;;;;;5068128;28;45406;-48
2024/02/25 11:04:04;;;;;;;;;3.00;2.00;;;;;;;;5084732;27;45392;-49
2024/02/25 11:06:30;;;;;;;;;3.00;2.00;;;;;;;;5072438;27;45419;-49
2024/02/25 11:09:00;;;;;;;;;3.00;3.00;;;;;;;;5083206;27;45296;-50
2024/02/25 11:11:25;;;;;;;;;5.67;4.00;;;;;;;;5078188;27;46496;-52
2024/02/25 11:13:50;;;;;;;;;4.67;4.00;;;;;;;;5080997;27;46743;-49
2024/02/25 11:16:15;;;;;;;;;6.00;4.00;;;;;;;;5078377;27;45578;-52
2024/02/25 11:18:43;;;;;;;;;3.67;3.00;;;;;;;;5082322;27;45420;-51
2024/02/25 11:21:09;;;;;;;;;2.67;1.67;;;;;;;;5071758;27;46139;-52
2024/02/25 11:23:41;;;;;;;;;2.33;2.00;;;;;;;;5063080;28;45223;-52
2024/02/25 11:26:30;;;;;;;;;1.00;1.00;;;;;;;;5076258;27;45387;-52
2024/02/25 11:29:14;;;;;;;;;6.00;4.00;;;;;;;;5075892;28;45507;-52
2024/02/25 11:31:57;;;;;;;;;3.00;3.00;;;;;;;;5070329;27;48150;-51
2024/02/25 11:34:26;;;;;;;;;3.00;3.00;;;;;;;;5067471;28;45441;-50
2024/02/25 11:36:53;;;;;;;;;2.67;2.67;;;;;;;;5077562;27;45522;-49
2024/02/25 11:39:19;;;;;;;;;3.00;2.33;;;;;;;;5078044;27;45449;-51
2024/02/25 11:41:44;;;;;;;;;3.00;2.00;;;;;;;;5077486;27;46364;-49
2024/02/25 11:44:09;;;;;;;;;1.00;1.00;;;;;;;;5076660;27;45545;-49
2024/02/25 11:46:35;;;;;;;;;1.33;1.33;;;;;;;;5076187;27;45443;-49
2024/02/25 11:49:01;;;;;;;;;2.00;2.00;;;;;;;;5076426;27;45496;-52
2024/02/25 11:51:26;;;;;;;;;5.33;3.00;;;;;;;;5077716;27;45994;-51
2024/02/25 11:53:52;;;;;;;;;2.33;2.33;;;;;;;;5075008;27;45661;-51
2024/02/25 11:56:17;;;;;;;;;3.67;2.00;;;;;;;;5069405;28;44790;-49
2024/02/25 11:58:42;;;;;;;;;3.00;3.00;;;;;;;;5066197;27;45458;-52
2024/02/25 12:01:08;;;;;;;;;2.00;2.00;;;;;;;;5070664;27;47127;-51
2024/02/25 12:03:35;;;;;;;;;2.00;2.00;;;;;;;;5070174;27;45601;-49
2024/02/25 12:06:01;;;;;;;;;2.33;2.00;;;;;;;;5075120;27;45201;-51
2024/02/25 12:08:26;;;;;;;;;3.33;2.67;;;;;;;;5077869;27;45609;-52
2024/02/25 12:10:52;;;;;;;;;4.00;3.00;;;;;;;;5078221;27;45579;-51
2024/02/25 12:13:17;;;;;;;;;1.00;1.00;;;;;;;;5073796;27;45473;-50
2024/02/25 12:15:42;;;;;;;;;2.33;2.33;;;;;;;;5077526;28;45278;-48
2024/02/25 12:18:09;;;;;;;;;3.67;3.00;;;;;;;;5076675;27;45498;-48
2024/02/25 12:20:34;;;;;;;;;7.00;4.00;;;;;;;;5077466;27;45534;-51
2024/02/25 12:23:00;;;;;;;;;2.00;2.00;;;;;;;;5077778;27;45479;-48
2024/02/25 12:25:26;;;;;;;;;1.00;1.00;;;;;;;;5078552;27;45534;-52
2024/02/25 12:28:04;;;;;;;;;2.00;1.00;;;;;;;;5081907;27;45522;-51
2024/02/25 12:30:31;;;;;;;;;1.00;1.00;;;;;;;;5068750;28;46752;-51
2024/02/25 12:32:57;;;;;;;;;1.67;1.00;;;;;;;;5072909;27;45449;-50
2024/02/25 12:35:22;;;;;;;;;2.33;2.33;;;;;;;;5075787;27;45451;-50
2024/02/25 12:37:48;;;;;;;;;2.33;2.33;;;;;;;;5078226;27;45477;-53
2024/02/25 12:40:14;;;;;;;;;2.67;1.33;;;;;;;;5074741;27;46598;-52
2024/02/25 12:42:44;;;;;;;;;3.00;1.00;;;;;;;;5068577;27;46406;-51
2024/02/25 12:45:09;;;;;;;;;1.67;1.67;;;;;;;;5075126;27;45366;-50
2024/02/25 12:47:35;;;;;;;;;3.00;1.00;;;;;;;;5072775;27;45823;-52
2024/02/25 12:50:00;;;;;;;;;1.00;1.00;;;;;;;;5080762;27;45726;-50
2024/02/25 12:52:25;;;;;;;;;2.00;2.00;;;;;;;;5080787;27;45623;-51
2024/02/25 12:54:50;;;;;;;;;0.00;0.00;;;;;;;;5080069;27;45274;-50
2024/02/25 12:57:15;;;;;;;;;3.00;1.00;;;;;;;;5079472;27;45433;-48
2024/02/25 12:59:41;;;;;;;;;3.00;2.00;;;;;;;;5079047;27;47164;-50
2024/02/25 13:02:08;;;;;;;;;1.33;1.33;;;;;;;;5079435;27;45500;-48
2024/02/25 13:04:34;;;;;;;;;1.33;1.33;;;;;;;;5074383;27;45574;-49
2024/02/25 13:06:59;;;;;;;;;0.00;0.00;;;;;;;;5079959;27;45483;-51
2024/02/25 13:09:24;;;;;;;;;0.67;0.67;;;;;;;;5077882;27;45605;-52
2024/02/25 13:11:50;;;;;;;;;2.00;2.00;;;;;;;;5080202;27;45841;-50
2024/02/25 13:14:15;;;;;;;;;2.00;2.00;;;;;;;;5077197;27;45826;-52
2024/02/25 13:16:40;;;;;;;;;1.67;1.67;;;;;;;;5079375;27;45660;-52
2024/02/25 13:19:05;;;;;;;;;1.00;1.00;;;;;;;;5080299;27;46269;-50
2024/02/25 13:21:30;;;;;;;;;1.33;1.33;;;;;;;;5079680;27;45378;-50
2024/02/25 13:23:56;;;;;;;;;3.67;1.67;;;;;;;;5080789;27;45413;-51
2024/02/25 13:26:21;;;;;;;;;2.00;2.00;;;;;;;;5079895;27;45590;-50
2024/02/25 13:28:47;;;;;;;;;4.00;2.33;;;;;;;;5075928;27;45701;-48
2024/02/25 13:31:12;;;;;;;;;2.00;2.00;;;;;;;;5080916;27;45384;-52
2024/02/25 13:33:37;;;;;;;;;0.67;0.00;;;;;;;;5080582;27;45757;-50
2024/02/25 13:36:03;;;;;;;;;3.00;1.33;;;;;;;;5072743;27;45348;-51
2024/02/25 13:38:28;;;;;;;;;1.00;1.00;;;;;;;;5076624;27;45379;-50
2024/02/25 13:40:53;;;;;;;;;3.00;2.00;;;;;;;;5075636;28;46676;-51
2024/02/25 13:43:19;;;;;;;;;1.00;1.00;;;;;;;;5073062;27;45416;-51
2024/02/25 13:45:48;;;;;;;;;1.00;1.00;;;;;;;;5073266;27;45184;-49
2024/02/25 13:48:14;;;;;;;;;0.67;0.67;;;;;;;;5074092;27;46751;-51
2024/02/25 13:50:40;;;;;;;;;1.00;1.00;;;;;;;;5078443;27;45482;-48
2024/02/25 13:53:05;;;;;;;;;1.33;1.33;;;;;;;;5077650;27;45409;-51
2024/02/25 13:55:31;;;;;;;;;5.00;3.00;;;;;;;;5077968;27;45593;-49
2024/02/25 13:57:57;;;;;;;;;1.67;1.67;;;;;;;;5078571;27;45436;-48
2024/02/25 14:00:23;;;;;;;;;3.00;3.00;;;;;;;;5077792;27;45315;-48
2024/02/25 14:02:48;;;;;;;;;2.00;1.00;;;;;;;;5078629;27;45519;-49
2024/02/25 14:05:13;;;;;;;;;2.00;2.00;;;;;;;;5084306;27;45457;-49
2024/02/25 14:07:38;;;;;;;;;1.00;1.00;;;;;;;;5073471;27;45603;-51
2024/02/25 14:10:05;;;;;;;;;8.00;4.00;;;;;;;;5072218;27;45422;-52
2024/02/25 14:12:30;;;;;;;;;5.00;4.00;;;;;;;;5073453;27;45533;-51
2024/02/25 14:14:55;;;;;;;;;4.00;2.00;;;;;;;;5068735;27;45589;-49
2024/02/25 14:17:21;;;;;;;;;2.00;2.00;;;;;;;;5078227;27;46767;-50
2024/02/25 14:19:47;;;;;;;;;2.00;1.00;;;;;;;;5080044;27;45281;-50
2024/02/25 14:22:12;;;;;;;;;1.67;1.67;;;;;;;;5079011;27;45272;-48
2024/02/25 14:24:37;;;;;;;;;2.00;2.00;;;;;;;;5072836;27;45373;-48
2024/02/25 14:27:03;;;;;;;;;3.00;1.33;;;;;;;;5078367;27;46311;-51
2024/02/25 14:29:28;;;;;;;;;6.33;3.67;;;;;;;;5072234;27;45360;-52
2024/02/25 14:31:53;;;;;;;;;4.00;3.00;;;;;;;;5071748;27;45703;-50
2024/02/25 14:34:19;;;;;;;;;3.67;2.67;;;;;;;;5076707;27;45641;-52